Time;durP1;ratioP1;P1;durP2;ratioP2;P2;SDS_P1;SDS_P2;PMS_P1;PMS_P2;Temp;Humidity;BMP_temperature;BMP_pressure;BME280_temperature;BME280_humidity;BME280_pressure;Samples;Min_cycle;Max_cycle;Signal;HPM_P1;HPM_P2
2022/10/06 00:00:15;;;;;;;4.07;1.25;;;;;;;11.12;70.42;102575.53;4955032;28;20480;-86
2022/10/06 00:02:40;;;;;;;1.70;1.08;;;;;;;10.89;70.72;102549.22;4954511;28;20034;-86
2022/10/06 00:05:06;;;;;;;1.10;0.90;;;;;;;11.04;71.05;102577.41;4970581;28;20026;-86
2022/10/06 00:07:32;;;;;;;2.30;1.55;;;;;;;11.09;70.45;102585.94;4970805;28;20022;-86
2022/10/06 00:09:57;;;;;;;2.25;1.50;;;;;;;11.13;70.61;102586.75;4954782;28;20039;-86
2022/10/06 00:12:23;;;;;;;1.65;1.10;;;;;;;10.98;71.11;102569.75;4954440;28;20035;-86
2022/10/06 00:14:48;;;;;;;1.88;1.10;;;;;;;10.84;71.35;102551.91;4954261;28;20528;-86
2022/10/06 00:17:14;;;;;;;1.48;1.10;;;;;;;11.06;71.33;102587.75;4970613;28;20078;-86
2022/10/06 00:19:39;;;;;;;1.67;1.40;;;;;;;10.86;71.36;102554.47;4954417;28;20023;-86
2022/10/06 00:22:04;;;;;;;2.28;1.33;;;;;;;10.79;71.31;102538.19;4958631;28;20031;-86
2022/10/06 00:24:31;;;;;;;2.28;1.35;;;;;;;10.95;71.42;102551.69;4975788;28;20026;-86
2022/10/06 00:26:56;;;;;;;3.47;1.77;;;;;;;10.99;71.34;102560.25;4958440;28;20034;-86
2022/10/06 00:29:22;;;;;;;1.92;1.10;;;;;;;11.01;71.28;102569.72;4958600;28;20031;-86
2022/10/06 00:31:47;;;;;;;2.03;1.20;;;;;;;10.91;72.00;102561.28;4958515;28;20416;-86
2022/10/06 00:34:13;;;;;;;2.17;1.13;;;;;;;10.96;72.05;102563.75;4974081;28;20033;-86
2022/10/06 00:36:38;;;;;;;2.35;1.55;;;;;;;10.96;71.86;102568.94;4958325;28;20043;-86
2022/10/06 00:39:04;;;;;;;3.92;2.03;;;;;;;10.92;71.33;102549.19;4958376;28;20031;-86
2022/10/06 00:41:29;;;;;;;2.38;1.60;;;;;;;10.89;71.83;102560.44;4958153;28;20033;-86
2022/10/06 00:43:58;;;;;;;1.95;1.27;;;;;;;10.85;72.44;102565.72;4958259;28;20030;-86
2022/10/06 00:46:24;;;;;;;2.67;1.42;;;;;;;10.93;71.95;102566.41;4958232;28;20034;-86
2022/10/06 00:49:02;;;;;;;2.08;1.13;;;;;;;10.78;72.52;102544.25;4975110;28;20027;-86
2022/10/06 00:51:27;;;;;;;1.83;1.33;;;;;;;10.79;72.47;102564.09;4943626;28;20090;-86
2022/10/06 00:53:53;;;;;;;3.40;1.73;;;;;;;10.66;72.33;102559.19;4958077;28;20039;-86
2022/10/06 00:56:18;;;;;;;3.25;1.95;;;;;;;10.65;72.85;102562.66;4958087;28;20027;-86
2022/10/06 00:58:44;;;;;;;3.83;1.58;;;;;;;10.51;73.67;102549.94;4953516;28;20025;-86
2022/10/06 01:01:10;;;;;;;1.67;0.98;;;;;;;10.66;73.77;102565.19;4950441;28;20039;-86
2022/10/06 01:03:48;;;;;;;3.00;1.80;;;;;;;10.70;73.06;102553.03;4949867;28;20062;-86
2022/10/06 01:06:13;;;;;;;2.63;1.60;;;;;;;10.70;72.77;102553.03;4966058;28;20735;-86
2022/10/06 01:08:39;;;;;;;1.92;1.27;;;;;;;10.65;72.92;102536.75;4950121;28;20054;-86
2022/10/06 01:11:05;;;;;;;1.30;0.93;;;;;;;10.67;72.81;102550.53;4966460;28;20050;-86
2022/10/06 01:13:31;;;;;;;2.72;1.35;;;;;;;10.60;73.11;102548.03;4966039;28;20037;-86
2022/10/06 01:16:07;;;;;;;2.95;1.67;;;;;;;10.61;72.96;102541.13;4950009;28;20034;-86
2022/10/06 01:18:33;;;;;;;2.25;1.05;;;;;;;10.56;72.46;102541.22;4965472;28;20073;-86
2022/10/06 01:21:09;;;;;;;5.05;2.15;;;;;;;10.49;72.48;102526.69;4949864;28;20121;-85
2022/10/06 01:23:34;;;;;;;2.08;1.50;;;;;;;10.48;72.28;102535.31;4950173;28;20033;-86
2022/10/06 01:26:02;;;;;;;2.17;1.48;;;;;;;10.49;72.37;102544.78;4965928;28;20038;-86
2022/10/06 01:28:27;;;;;;;3.63;2.40;;;;;;;10.49;72.35;102541.34;4967706;28;20027;-86
2022/10/06 01:30:53;;;;;;;1.58;1.40;;;;;;;10.49;72.06;102537.03;4973301;28;20066;-86
2022/10/06 01:33:19;;;;;;;2.97;1.77;;;;;;;10.42;72.28;102539.75;4972329;28;20065;-86
2022/10/06 01:35:46;;;;;;;2.42;1.50;;;;;;;10.33;72.72;102535.63;4957281;28;20027;-85
2022/10/06 01:38:11;;;;;;;2.05;1.17;;;;;;;10.31;72.52;102527.84;4957336;28;20038;-86
2022/10/06 01:40:37;;;;;;;1.98;1.38;;;;;;;10.46;72.12;102547.44;4973329;28;20031;-86
2022/10/06 01:43:02;;;;;;;2.40;1.40;;;;;;;10.36;72.37;102517.44;4941215;28;20528;-86
2022/10/06 01:45:27;;;;;;;1.17;0.80;;;;;;;10.39;72.25;102534.63;4973268;28;20099;-86
2022/10/06 01:47:53;;;;;;;2.80;1.60;;;;;;;10.36;72.18;102524.34;4972450;28;20031;-86
2022/10/06 01:50:18;;;;;;;6.18;1.73;;;;;;;10.38;72.15;102527.75;4973372;28;20381;-86
2022/10/06 01:52:44;;;;;;;1.63;1.10;;;;;;;10.33;71.64;102535.63;4972981;28;20030;-86
2022/10/06 01:55:09;;;;;;;1.65;1.05;;;;;;;10.32;72.07;102533.88;4972989;28;20034;-86
2022/10/06 01:57:39;;;;;;;2.88;1.75;;;;;;;10.19;72.15;102516.84;4973053;28;20500;-86
2022/10/06 02:00:05;;;;;;;4.93;1.77;;;;;;;10.19;72.25;102525.47;4973318;28;20026;-86
2022/10/06 02:02:31;;;;;;;2.05;1.23;;;;;;;10.30;72.07;102533.06;4972632;28;20031;-86
2022/10/06 02:04:56;;;;;;;1.30;0.90;;;;;;;10.36;71.61;102525.22;4972609;28;20051;-86
2022/10/06 02:07:22;;;;;;;1.38;0.93;;;;;;;10.26;71.53;102528.84;4972886;28;20034;-86
2022/10/06 02:09:47;;;;;;;2.50;1.55;;;;;;;10.25;71.72;102521.97;4954134;28;20033;-86
2022/10/06 02:12:13;;;;;;;3.95;2.63;;;;;;;10.16;71.33;102517.75;4965647;28;20536;-86
2022/10/06 02:14:38;;;;;;;2.95;1.98;;;;;;;10.23;71.39;102531.50;4948659;28;20039;-86
2022/10/06 02:17:05;;;;;;;6.07;2.88;;;;;;;10.09;71.35;102513.56;4965113;28;20451;-86
2022/10/06 02:19:30;;;;;;;2.25;1.27;;;;;;;9.99;71.42;102509.41;4948996;28;20035;-86
2022/10/06 02:21:57;;;;;;;2.88;1.70;;;;;;;9.98;71.77;102529.25;4964898;28;20427;-86
2022/10/06 02:24:22;;;;;;;3.25;1.65;;;;;;;9.90;72.53;102525.94;4964451;28;20042;-86
2022/10/06 02:26:48;;;;;;;4.50;2.00;;;;;;;9.91;72.78;102534.53;4948577;28;20046;-86
2022/10/06 02:29:13;;;;;;;2.65;1.55;;;;;;;9.94;72.22;102537.94;4964855;28;20043;-86
2022/10/06 02:31:39;;;;;;;2.95;1.75;;;;;;;9.92;72.36;102533.66;4964148;28;20034;-86
2022/10/06 02:34:04;;;;;;;5.90;2.45;;;;;;;9.83;72.29;102520.88;4964529;28;20536;-86
2022/10/06 02:36:30;;;;;;;3.20;1.65;;;;;;;9.87;72.43;102531.16;4948512;28;20097;-86
2022/10/06 02:38:56;;;;;;;2.60;1.40;;;;;;;9.94;72.40;102530.19;4948160;28;20492;-86
2022/10/06 02:41:21;;;;;;;5.45;2.10;;;;;;;9.86;72.92;102513.09;4969441;28;20420;-86
2022/10/06 02:43:47;;;;;;;2.58;1.45;;;;;;;9.77;72.59;102514.09;4951116;28;20481;-86
2022/10/06 02:46:13;;;;;;;6.78;1.80;;;;;;;9.75;73.52;102516.69;4964436;28;20465;-86
2022/10/06 02:48:39;;;;;;;2.53;1.60;;;;;;;9.74;73.37;102503.81;4964425;28;20193;-86
2022/10/06 02:51:07;;;;;;;2.63;1.42;;;;;;;9.74;72.93;102489.16;4964391;28;20033;-86
2022/10/06 02:53:33;;;;;;;4.03;1.83;;;;;;;9.94;72.30;102498.31;4964343;28;20034;-86
2022/10/06 02:56:09;;;;;;;3.08;1.88;;;;;;;10.00;72.53;102504.22;4948063;28;20035;-85
2022/10/06 02:58:35;;;;;;;1.52;1.25;;;;;;;9.97;72.58;102504.28;4963966;28;20035;-85
2022/10/06 03:01:06;;;;;;;4.25;1.40;;;;;;;9.92;72.25;102506.06;4963883;28;20564;-85
2022/10/06 03:03:31;;;;;;;2.67;1.50;;;;;;;9.84;72.13;102479.53;4963744;28;20058;-85
2022/10/06 03:06:01;;;;;;;3.78;2.20;;;;;;;9.98;72.24;102500.81;4964129;28;20054;-85
2022/10/06 03:08:26;;;;;;;2.03;1.40;;;;;;;9.89;72.54;102500.13;4948466;28;20031;-83
2022/10/06 03:10:58;;;;;;;3.40;1.63;;;;;;;9.90;72.52;102505.25;4963876;28;20084;-83
2022/10/06 03:13:24;;;;;;;3.47;1.45;;;;;;;9.77;72.76;102493.41;4965142;28;20481;-83
2022/10/06 03:15:49;;;;;;;4.20;2.40;;;;;;;9.87;73.12;102509.63;4955196;28;20034;-83
2022/10/06 03:18:14;;;;;;;3.60;2.15;;;;;;;9.78;73.02;102484.78;4955495;28;20030;-83
2022/10/06 03:20:40;;;;;;;3.05;2.00;;;;;;;9.96;73.28;102501.72;4955285;28;20047;-83
2022/10/06 03:23:05;;;;;;;2.60;1.83;;;;;;;9.99;73.08;102507.69;4971189;28;20027;-82
2022/10/06 03:25:31;;;;;;;4.90;2.08;;;;;;;10.06;72.70;102503.28;4955242;28;20031;-83
2022/10/06 03:27:56;;;;;;;2.53;1.50;;;;;;;10.00;72.61;102491.28;4954935;28;20390;-83
2022/10/06 03:30:22;;;;;;;1.48;1.33;;;;;;;10.02;72.94;102507.63;4971294;28;20098;-83
2022/10/06 03:32:47;;;;;;;5.43;1.60;;;;;;;9.91;72.77;102491.44;4971269;28;20042;-83
2022/10/06 03:35:13;;;;;;;5.70;2.15;;;;;;;9.98;72.98;102503.41;4952989;28;20050;-83
2022/10/06 03:37:38;;;;;;;3.13;1.77;;;;;;;9.94;73.09;102506.94;4963630;28;20026;-84
2022/10/06 03:40:04;;;;;;;2.15;1.58;;;;;;;9.98;72.55;102511.16;4963750;28;20043;-85
2022/10/06 03:42:31;;;;;;;3.10;1.83;;;;;;;9.96;72.59;102510.34;4963547;28;20054;-83
2022/10/06 03:44:56;;;;;;;4.22;2.35;;;;;;;10.02;72.25;102512.81;4963500;28;20034;-83
2022/10/06 03:47:22;;;;;;;4.18;2.38;;;;;;;10.10;72.42;102522.16;4963134;28;20062;-83
2022/10/06 03:49:47;;;;;;;6.93;2.40;;;;;;;10.01;72.21;102521.44;4963328;28;20043;-83
2022/10/06 03:52:12;;;;;;;3.38;2.10;;;;;;;9.97;72.30;102501.69;4963270;28;20043;-83
2022/10/06 03:54:38;;;;;;;3.13;2.38;;;;;;;10.14;71.82;102514.34;4962635;28;20535;-83
2022/10/06 03:57:03;;;;;;;8.95;3.15;;;;;;;10.11;72.01;102514.38;4946732;28;20092;-83
2022/10/06 03:59:32;;;;;;;3.67;2.08;;;;;;;10.01;72.00;102493.00;4962683;28;20512;-84
2022/10/06 04:01:58;;;;;;;7.47;3.15;;;;;;;10.09;72.54;102515.28;4947364;28;20406;-83
2022/10/06 04:04:23;;;;;;;3.45;2.15;;;;;;;10.04;72.35;102515.38;4961934;28;20051;-83
2022/10/06 04:06:50;;;;;;;2.78;1.52;;;;;;;10.07;72.07;102518.75;4968417;28;20049;-83
2022/10/06 04:09:16;;;;;;;3.63;2.42;;;;;;;9.87;72.39;102502.72;4969483;28;20038;-83
2022/10/06 04:11:42;;;;;;;27.83;2.75;;;;;;;9.93;72.60;102520.75;4970366;28;20035;-83
2022/10/06 04:14:09;;;;;;;5.88;2.78;;;;;;;9.84;72.63;102527.78;4954373;28;20031;-83
2022/10/06 04:16:36;;;;;;;2.70;1.83;;;;;;;9.78;72.71;102520.97;4969804;28;20023;-87
2022/10/06 04:19:03;;;;;;;3.20;2.03;;;;;;;9.83;73.12;102528.63;4969566;28;20027;-89
2022/10/06 04:21:30;;;;;;;4.15;2.95;;;;;;;9.79;73.39;102527.84;4954217;28;20034;-84
2022/10/06 04:23:56;;;;;;;5.97;2.60;;;;;;;9.78;72.85;102521.81;4970401;28;20505;-85
2022/10/06 04:26:22;;;;;;;3.67;2.30;;;;;;;9.73;72.82;102518.47;4954146;28;20517;-89
2022/10/06 04:28:47;;;;;;;5.28;3.10;;;;;;;8.81;76.10;102533.44;4977337;28;20596;-87
2022/10/06 04:31:18;;;;;;;3.47;2.28;;;;;;;8.26;78.49;102521.94;4955806;28;20129;-92
2022/10/06 04:33:44;;;;;;;4.82;2.50;;;;;;;7.93;80.39;102529.94;4958344;28;20034;-92
2022/10/06 04:36:11;;;;;;;3.97;2.40;;;;;;;8.15;79.99;102494.53;4937603;28;20031;-83
2022/10/06 04:38:37;;;;;;;4.95;3.25;;;;;;;8.38;79.04;102513.28;4969884;28;20023;-81
2022/10/06 04:41:13;;;;;;;8.57;5.25;;;;;;;8.36;79.82;102520.19;4969212;28;20039;-82
2022/10/06 04:43:39;;;;;;;5.35;2.95;;;;;;;8.65;78.43;102517.28;4953842;28;20548;-91
2022/10/06 04:46:04;;;;;;;6.82;3.92;;;;;;;8.36;79.08;102533.06;4957613;28;20039;-94
2022/10/06 04:48:30;;;;;;;9.77;5.00;;;;;;;8.74;78.72;102530.06;4970417;28;20031;-82
2022/10/06 04:51:00;;;;;;;5.72;3.08;;;;;;;8.68;78.07;102527.59;4954895;28;20121;-93
2022/10/06 04:53:26;;;;;;;4.30;3.10;;;;;;;8.55;79.29;102541.47;4950538;29;20027;-83
2022/10/06 04:56:01;;;;;;;4.82;3.47;;;;;;;8.85;78.66;102541.16;4938979;28;20031;-83
2022/10/06 04:58:34;;;;;;;4.45;3.17;;;;;;;8.69;78.07;102543.91;4970406;28;20114;-90
2022/10/06 05:01:00;;;;;;;4.90;3.25;;;;;;;8.68;79.50;102543.06;4953596;28;20042;-90
2022/10/06 05:03:27;;;;;;;9.55;3.20;;;;;;;8.94;78.75;102535.00;4965771;28;20051;-93
2022/10/06 05:06:01;;;;;;;6.13;3.67;;;;;;;8.72;79.27;102544.72;4939906;28;20035;-94
2022/10/06 05:08:27;;;;;;;2.50;2.17;;;;;;;8.95;79.18;102541.03;4976447;28;20035;-93
2022/10/06 05:10:59;;;;;;;3.97;2.35;;;;;;;9.25;78.07;102548.44;4960638;28;20105;-92
2022/10/06 05:13:25;;;;;;;3.38;2.92;;;;;;;8.88;78.16;102545.44;4970225;28;20038;-84
2022/10/06 05:15:55;;;;;;;5.45;3.67;;;;;;;9.26;77.77;102551.88;4957440;28;20038;-94
2022/10/06 05:18:21;;;;;;;5.50;3.67;;;;;;;9.49;76.40;102554.97;4977564;28;20026;-89
2022/10/06 05:21:03;;;;;;;5.38;3.85;;;;;;;9.38;77.36;102557.72;4985425;28;20034;-93
2022/10/06 05:23:30;;;;;;;7.38;3.65;;;;;;;9.67;76.67;102551.28;4968008;28;20038;-91
2022/10/06 05:25:56;;;;;;;11.18;5.38;;;;;;;9.65;76.34;102546.16;4961296;28;20532;-84
2022/10/06 05:28:22;;;;;;;6.45;3.97;;;;;;;9.68;76.55;102546.09;4975543;28;20049;-86
2022/10/06 05:30:55;;;;;;;9.57;4.72;;;;;;;9.96;75.29;102541.38;4969818;28;20026;-91
2022/10/06 05:33:21;;;;;;;7.55;4.95;;;;;;;9.74;75.40;102545.16;4985226;28;20030;-91
2022/10/06 05:36:27;;;;;;;4.35;2.90;;;;;;;9.94;75.53;102543.13;4975131;28;20062;-94
2022/10/06 05:38:53;;;;;;;5.38;2.70;;;;;;;10.02;74.68;102538.66;4964253;28;20027;-94
2022/10/06 05:41:32;;;;;;;4.25;2.05;;;;;;;9.86;74.65;102544.97;4957691;28;20034;-89
2022/10/06 05:43:58;;;;;;;6.78;4.43;;;;;;;10.01;74.13;102534.38;4969981;28;20030;-88
2022/10/06 05:46:31;;;;;;;7.97;3.30;;;;;;;9.76;73.73;102499.47;4953915;28;20019;-86
2022/10/06 05:49:01;;;;;;;5.15;3.72;;;;;;;9.81;75.21;102544.16;4974484;28;20030;-88
2022/10/06 05:51:28;;;;;;;7.38;3.35;;;;;;;9.99;74.62;102541.31;4955216;29;20034;-89
2022/10/06 05:53:54;;;;;;;5.72;3.30;;;;;;;9.92;74.61;102544.84;4936958;28;20507;-88
2022/10/06 05:56:23;;;;;;;9.63;5.97;;;;;;;10.14;74.31;102547.13;4973545;28;20070;-93
2022/10/06 05:58:50;;;;;;;4.72;3.58;;;;;;;10.26;73.51;102540.03;4954658;28;20388;-90
2022/10/06 06:01:17;;;;;;;6.05;3.47;;;;;;;10.07;74.39;102560.16;4966511;28;20034;-82
2022/10/06 06:03:46;;;;;;;8.90;2.55;;;;;;;10.38;77.63;102538.09;4991331;28;20050;-86
2022/10/06 06:06:36;;;;;;;15.65;2.70;;;;;;;10.73;73.89;102547.84;4958055;28;20176;-86
2022/10/06 06:09:13;;;;;;;7.50;4.05;;;;;;;10.62;73.09;102543.72;4976858;28;20023;-89
2022/10/06 06:11:40;;;;;;;6.60;3.78;;;;;;;11.04;72.83;102554.13;4972222;28;20037;-91
2022/10/06 06:14:07;;;;;;;4.13;3.20;;;;;;;11.05;71.25;102558.41;4958279;28;20038;-94
2022/10/06 06:16:33;;;;;;;7.32;4.10;;;;;;;11.18;71.70;102549.47;4960765;28;20026;-85
2022/10/06 06:18:59;;;;;;;6.20;3.83;;;;;;;11.53;70.94;102554.81;4966110;28;20027;-94
2022/10/06 06:21:25;;;;;;;9.98;4.93;;;;;;;11.33;69.74;102557.84;4972326;28;20567;-91
2022/10/06 06:23:50;;;;;;;6.00;3.65;;;;;;;11.41;70.46;102551.59;4953819;28;20031;-94
2022/10/06 06:26:26;;;;;;;15.05;8.07;;;;;;;11.78;70.10;102561.97;4961969;28;20488;-94
2022/10/06 06:28:53;;;;;;;7.30;4.28;;;;;;;11.66;69.26;102561.41;4968715;28;20560;-91
2022/10/06 06:31:20;;;;;;;9.20;4.45;;;;;;;11.92;68.96;102563.44;4956964;28;20155;-91
2022/10/06 06:33:46;;;;;;;7.18;2.28;;;;;;;12.05;66.96;102565.69;4957185;28;20520;-94
2022/10/06 06:36:16;;;;;;;3.50;2.28;;;;;;;11.93;67.88;102570.34;4960023;28;20031;-90
2022/10/06 06:38:42;;;;;;;3.80;2.53;;;;;;;11.73;68.18;102569.03;4981529;28;20031;-93
2022/10/06 06:41:14;;;;;;;5.18;3.45;;;;;;;12.03;68.72;102570.09;4961281;28;20070;-91
2022/10/06 06:43:41;;;;;;;6.28;3.75;;;;;;;12.27;67.23;102570.34;4983717;28;20030;-92
2022/10/06 06:46:06;;;;;;;3.80;2.60;;;;;;;12.19;66.49;102573.16;4956515;28;20085;-89
2022/10/06 06:48:34;;;;;;;2.30;1.83;;;;;;;12.46;65.90;102565.56;4951653;29;20055;-83
2022/10/06 06:51:00;;;;;;;4.65;2.40;;;;;;;12.19;66.94;102567.97;4980578;28;20030;-93
2022/10/06 06:53:25;;;;;;;4.00;1.98;;;;;;;12.45;66.94;102558.66;4943799;28;20414;-87
2022/10/06 06:55:51;;;;;;;6.15;2.17;;;;;;;12.61;66.04;102555.63;4953008;28;20034;-91
2022/10/06 06:58:20;;;;;;;15.95;6.25;;;;;;;12.50;66.43;102554.22;4973854;28;20416;-96
2022/10/06 07:00:46;;;;;;;5.05;3.40;;;;;;;12.79;67.19;102549.09;4956002;28;20049;-83
2022/10/06 07:03:21;;;;;;;11.52;4.50;;;;;;;12.99;64.74;102551.13;4955176;28;20051;-85
2022/10/06 07:05:47;;;;;;;5.18;3.10;;;;;;;13.03;64.90;102568.31;4984918;28;20026;-92
2022/10/06 07:08:14;;;;;;;10.23;4.13;;;;;;;13.11;64.40;102552.53;4959375;28;20043;-95
2022/10/06 07:10:40;;;;;;;14.50;3.92;;;;;;;13.42;64.97;102563.75;4953337;28;20042;-85
2022/10/06 07:13:06;;;;;;;8.35;2.88;;;;;;;13.61;63.25;102557.97;4954953;28;20089;-92
2022/10/06 07:26:29;;;;;;;6.57;2.70;;;;;;;14.09;62.90;102539.09;4955937;28;20542;-85
2022/10/06 07:28:58;;;;;;;4.47;2.35;;;;;;;13.87;62.19;102541.56;4954717;28;20042;-83
2022/10/06 07:31:26;;;;;;;3.65;1.95;;;;;;;14.12;61.52;102570.22;4971128;28;20046;-94
2022/10/06 07:33:52;;;;;;;3.47;1.90;;;;;;;14.31;60.87;102558.31;4954095;28;20410;-88
2022/10/06 07:36:19;;;;;;;3.75;2.10;;;;;;;14.19;61.17;102546.56;4950786;28;20671;-92
2022/10/06 07:38:46;;;;;;;4.75;2.80;;;;;;;14.35;61.89;102550.34;4956943;28;20010;-89
2022/10/06 07:41:11;;;;;;;2.88;1.88;;;;;;;14.58;60.37;102557.41;4960041;28;20034;-89
2022/10/06 07:43:37;;;;;;;3.53;2.67;;;;;;;14.78;61.01;102561.91;4960814;28;20030;-87
2022/10/06 07:46:03;;;;;;;5.50;2.50;;;;;;;14.42;62.67;102553.56;4973872;28;20035;-88
2022/10/06 07:48:28;;;;;;;6.97;2.47;;;;;;;14.44;62.96;102549.16;4955427;28;20982;-87
2022/10/06 07:50:53;;;;;;;4.90;2.20;;;;;;;14.44;62.88;102543.94;4950674;29;20027;-88
2022/10/06 07:53:19;;;;;;;5.32;2.70;;;;;;;14.51;62.51;102565.47;4952785;28;20542;-86
2022/10/06 07:55:46;;;;;;;4.18;2.95;;;;;;;14.62;62.31;102548.56;4954142;28;20032;-89
2022/10/06 07:58:12;;;;;;;4.82;2.70;;;;;;;14.79;61.75;102562.75;4970310;28;20085;-89
2022/10/06 08:00:39;;;;;;;2.63;1.88;;;;;;;14.70;61.53;102548.28;4968635;28;20114;-86
2022/10/06 08:03:04;;;;;;;8.35;1.92;;;;;;;14.74;62.23;102557.69;4971105;28;20546;-90
2022/10/06 08:05:31;;;;;;;4.07;2.22;;;;;;;14.85;60.98;102533.88;4950169;28;20145;-88
2022/10/06 08:07:57;;;;;;;5.47;2.10;;;;;;;15.00;60.72;102551.53;4951439;28;20031;-93
2022/10/06 08:10:22;;;;;;;5.65;2.33;;;;;;;14.81;61.38;102540.94;4967732;28;20037;-84
2022/10/06 08:12:47;;;;;;;3.53;2.20;;;;;;;15.03;61.40;102548.81;4950814;28;20680;-86
2022/10/06 08:15:13;;;;;;;4.45;2.65;;;;;;;15.13;60.46;102518.88;4951282;28;20042;-84
2022/10/06 08:17:39;;;;;;;6.05;3.03;;;;;;;15.28;59.97;102527.03;4959852;28;20507;-84
2022/10/06 08:20:06;;;;;;;5.93;2.60;;;;;;;15.84;65.65;102532.66;4950749;28;20030;-84
2022/10/06 08:22:32;;;;;;;8.45;2.78;;;;;;;16.70;61.83;102521.19;4952593;28;20038;-88
2022/10/06 08:24:57;;;;;;;4.82;2.83;;;;;;;16.63;56.55;102533.66;4952077;28;20031;-87
2022/10/06 08:27:27;;;;;;;4.80;2.47;;;;;;;16.54;55.89;102534.06;4979098;28;20121;-90
2022/10/06 08:29:53;;;;;;;4.70;2.88;;;;;;;16.58;56.84;102525.16;4972831;28;20496;-95
2022/10/06 08:32:20;;;;;;;8.38;3.28;;;;;;;16.71;56.60;102520.25;4970199;28;20121;-85
2022/10/06 08:34:46;;;;;;;6.28;2.75;;;;;;;16.80;54.75;102514.63;4957634;28;20038;-82
2022/10/06 08:37:13;;;;;;;4.43;1.90;;;;;;;16.86;53.73;102524.81;4985490;28;20027;-82
2022/10/06 08:39:40;;;;;;;4.63;2.20;;;;;;;16.90;54.09;102536.81;4962342;28;20058;-86
2022/10/06 08:42:17;;;;;;;5.15;2.53;;;;;;;16.75;53.63;102525.28;4955080;28;20152;-85
2022/10/06 08:44:47;;;;;;;4.32;2.05;;;;;;;16.86;54.42;102530.03;4959645;28;20023;-91
2022/10/06 08:47:18;;;;;;;5.88;2.67;;;;;;;16.84;53.42;102518.81;4958341;28;20484;-84
2022/10/06 08:49:47;;;;;;;7.57;2.60;;;;;;;16.82;53.46;102529.34;4957289;28;20035;-90
2022/10/06 08:52:21;;;;;;;5.07;3.15;;;;;;;16.90;54.00;102532.44;4961550;28;20043;-83
2022/10/06 08:55:05;;;;;;;6.18;3.35;;;;;;;17.09;53.53;102537.69;4977293;28;20065;-84
2022/10/06 08:57:54;;;;;;;4.45;2.90;;;;;;;17.38;53.22;102538.94;4971375;28;20077;-89
2022/10/06 09:00:19;;;;;;;6.68;2.70;;;;;;;17.51;52.90;102538.38;4973181;28;20050;-91
2022/10/06 09:02:46;;;;;;;8.07;2.42;;;;;;;17.59;51.57;102541.44;4956204;28;20095;-83
2022/10/06 09:05:13;;;;;;;4.82;2.13;;;;;;;17.67;52.13;102513.16;4972043;28;20027;-83
2022/10/06 09:08:04;;;;;;;3.20;1.98;;;;;;;17.92;51.61;102518.91;4961191;28;20492;-83
2022/10/06 09:10:34;;;;;;;4.80;2.75;;;;;;;18.05;51.06;102504.25;4948715;28;20114;-83
2022/10/06 09:13:05;;;;;;;5.15;2.45;;;;;;;18.30;51.01;102527.44;4972592;28;20019;-85
2022/10/06 09:16:07;;;;;;;4.55;2.55;;;;;;;18.41;50.40;102524.28;4965668;28;20064;-83
2022/10/06 09:18:51;;;;;;;7.78;2.53;;;;;;;18.54;49.93;102506.97;4955558;28;20127;-86
2022/10/06 09:21:52;;;;;;;5.10;2.40;;;;;;;18.64;49.87;102512.56;4971233;28;20030;-84
2022/10/06 09:24:30;;;;;;;3.95;2.45;;;;;;;18.67;49.31;102522.06;4958809;28;20457;-94
2022/10/06 09:26:57;;;;;;;8.35;2.38;;;;;;;18.63;49.87;102509.13;4956513;28;20051;-87
2022/10/06 09:29:22;;;;;;;3.75;2.35;;;;;;;18.71;50.17;102518.38;4991112;28;20097;-89
2022/10/06 09:31:49;;;;;;;3.45;1.95;;;;;;;18.68;49.65;102508.03;4976166;28;20031;-86
2022/10/06 09:34:23;;;;;;;4.20;2.00;;;;;;;18.88;50.24;102510.47;4985723;28;20031;-84
2022/10/06 09:37:08;;;;;;;2.75;1.80;;;;;;;19.03;48.16;102514.88;4971830;28;20043;-82
2022/10/06 09:39:37;;;;;;;3.60;2.00;;;;;;;18.99;48.34;102497.63;4962091;28;20035;-82
2022/10/06 09:42:03;;;;;;;3.30;1.95;;;;;;;19.31;49.12;102508.09;4955337;28;20023;-81
2022/10/06 09:44:56;;;;;;;5.15;2.35;;;;;;;19.47;47.43;102508.94;4972147;28;20030;-81
2022/10/06 09:47:27;;;;;;;;;;;;;;;19.48;47.97;102503.59;4982307;28;20045;-81
2022/10/06 09:50:11;;;;;;;5.03;2.22;;;;;;;19.63;48.14;102499.28;5019269;28;19914;-81
2022/10/06 09:52:57;;;;;;;4.00;2.00;;;;;;;19.69;47.21;102504.19;4972284;28;20031;-84
2022/10/06 09:55:27;;;;;;;2.78;1.92;;;;;;;19.72;47.39;102490.88;4968524;28;20093;-85
2022/10/06 09:57:55;;;;;;;5.93;2.80;;;;;;;19.78;47.44;102497.56;4948476;28;20126;-85
2022/10/06 10:00:34;;;;;;;4.47;2.35;;;;;;;19.74;47.22;102493.41;4971362;28;20177;-85
2022/10/06 10:03:12;;;;;;;3.80;2.22;;;;;;;19.70;47.16;102484.88;4956863;28;20481;-88
2022/10/06 10:05:39;;;;;;;4.20;2.63;;;;;;;19.80;47.81;102476.44;4963100;28;20507;-84
2022/10/06 10:08:21;;;;;;;10.77;6.00;;;;;;;19.90;47.66;102459.22;4975794;28;20042;-90
2022/10/06 10:10:47;;;;;;;7.82;3.65;;;;;;;20.04;46.41;102462.69;5001385;28;20031;-84
2022/10/06 10:13:23;;;;;;;7.70;2.67;;;;;;;20.18;46.40;102480.28;4954388;28;20050;-87
2022/10/06 10:15:54;;;;;;;9.27;4.18;;;;;;;20.12;45.95;102441.22;4951647;28;20066;-85
2022/10/06 10:18:26;;;;;;;6.88;2.50;;;;;;;20.42;45.25;102482.34;4986086;28;20045;-82
2022/10/06 10:20:59;;;;;;;4.63;2.63;;;;;;;20.34;45.89;102454.72;4958875;28;20098;-82
2022/10/06 10:23:28;;;;;;;7.93;3.45;;;;;;;20.53;44.98;102474.69;4967319;28;20385;-84
2022/10/06 10:26:06;;;;;;;8.07;2.83;;;;;;;20.59;44.60;102476.94;4972683;28;20045;-84
2022/10/06 10:28:50;;;;;;;6.18;2.95;;;;;;;20.51;45.28;102450.28;4985302;28;20122;-84
2022/10/06 10:31:19;;;;;;;5.30;2.65;;;;;;;20.81;45.00;102469.38;4981400;28;20035;-88
2022/10/06 10:34:08;;;;;;;5.38;2.80;;;;;;;20.86;44.79;102455.97;4971342;28;20030;-88
2022/10/06 10:36:39;;;;;;;6.22;3.08;;;;;;;21.01;44.66;102441.81;4987180;28;20097;-87
2022/10/06 10:39:08;;;;;;;6.88;2.70;;;;;;;21.23;42.74;102438.63;4956683;28;20026;-89
2022/10/06 10:41:40;;;;;;;3.33;1.92;;;;;;;21.31;39.28;102441.63;4955132;28;20105;-88
2022/10/06 10:44:08;;;;;;;5.70;2.37;;;;;;;21.48;40.65;102446.66;4971067;28;20038;-87
2022/10/06 10:46:43;;;;;;;4.75;2.63;;;;;;;21.45;40.50;102433.69;4955465;28;20262;-90
2022/10/06 10:49:12;;;;;;;4.70;1.98;;;;;;;21.58;39.19;102430.25;4951920;29;20031;-82
2022/10/06 10:51:56;;;;;;;4.40;2.22;;;;;;;21.67;39.33;102437.53;4937510;28;20519;-83
2022/10/06 10:54:33;;;;;;;8.32;2.65;;;;;;;21.67;39.31;102422.56;4987300;28;20038;-81
2022/10/06 10:56:59;;;;;;;7.40;2.97;;;;;;;21.71;39.71;102418.75;4939312;28;20041;-81
2022/10/06 10:59:36;;;;;;;6.45;3.17;;;;;;;21.91;40.28;102433.22;4953978;28;20405;-86
2022/10/06 11:02:14;;;;;;;4.10;2.17;;;;;;;21.88;37.91;102419.41;4973225;28;20515;-84
2022/10/06 11:04:42;;;;;;;4.32;2.60;;;;;;;21.89;37.89;102416.66;4954252;28;20564;-89
2022/10/06 11:07:13;;;;;;;5.22;3.13;;;;;;;21.93;38.23;102422.59;4937409;28;20034;-86
2022/10/06 11:10:14;;;;;;;5.10;2.60;;;;;;;22.04;37.66;102423.53;4971396;28;20438;-90
2022/10/06 11:13:17;;;;;;;5.70;2.78;;;;;;;22.10;37.70;102418.81;4955278;28;20026;-94
2022/10/06 11:15:49;;;;;;;6.63;2.60;;;;;;;22.05;37.31;102411.19;4979654;28;20433;-90
2022/10/06 11:19:00;;;;;;;7.60;2.45;;;;;;;21.91;38.11;102404.22;4964244;28;20478;-90
2022/10/06 11:21:26;;;;;;;6.03;2.63;;;;;;;21.87;37.26;102401.91;4963882;28;20576;-88
2022/10/06 11:24:07;;;;;;;3.78;2.38;;;;;;;21.93;37.85;102407.63;4951676;28;20039;-90
2022/10/06 11:26:47;;;;;;;4.28;1.90;;;;;;;22.07;37.80;102392.66;4986806;28;20483;-83
2022/10/06 11:29:39;;;;;;;4.43;1.98;;;;;;;22.08;37.50;102391.72;4966978;28;20038;-84
2022/10/06 11:32:19;;;;;;;5.03;2.40;;;;;;;22.03;37.41;102387.59;4970385;28;20031;-82
2022/10/06 11:34:47;;;;;;;4.47;2.30;;;;;;;22.00;38.60;102382.50;4968924;28;20035;-86
2022/10/06 11:37:36;;;;;;;4.43;2.03;;;;;;;21.92;38.40;102379.56;4982457;28;20049;-81
2022/10/06 11:40:20;;;;;;;3.95;1.92;;;;;;;21.88;38.49;102372.81;4968064;28;20524;-88
2022/10/06 11:43:06;;;;;;;7.60;3.20;;;;;;;21.88;38.31;102375.47;4985541;28;20030;-91
2022/10/06 11:45:45;;;;;;;11.05;5.10;;;;;;;21.83;38.44;102372.31;4971181;28;20078;-89
2022/10/06 11:48:29;;;;;;;9.73;3.80;;;;;;;21.74;38.77;102359.78;4970095;28;20072;-90